This is the latest recevied weather packets stored in our database for station/object OK2CME-6. If no packets are shown the sender has not sent any weather packets the latest 10 day(s).
| Time | Temp. | Humidity | Pressure | Rain* | Wind** | Luminosity | Snow |
|---|---|---|---|---|---|---|---|
| 1777526751 | 2.22° C | 56% | 1032 hPa | 0 mm | - | 84 W/m² | - |
| 1777525551 | 1.67° C | 59% | 1031.9 hPa | 0 mm | - | 54 W/m² | - |
| 1777524351 | 0.56° C | 62% | 1031.7 hPa | 0 mm | - | 32 W/m² | - |
| 1777523151 | -0.56° C | 64% | 1031.5 hPa | 0 mm | - | 17 W/m² | - |
| 1777521951 | -1.11° C | 66% | 1031.5 hPa | 0 mm | - | 7 W/m² | - |
| 1777520751 | -1.11° C | 66% | 1031.5 hPa | 0 mm | - | 1 W/m² | - |
| 1777519551 | -0.56° C | 65% | 1031.6 hPa | 0 mm | - | 0 W/m² | - |
| 1777518351 | -0.56° C | 63% | 1031.2 hPa | 0 mm | - | 0 W/m² | - |
| 1777517151 | 0° C | 62% | 1031.3 hPa | 0 mm | - | 0 W/m² | - |
| 1777515951 | 0° C | 62% | 1031.5 hPa | 0 mm | - | 0 W/m² | - |
| 1777514751 | 0° C | 61% | 1031.4 hPa | 0 mm | - | 0 W/m² | - |
| 1777513551 | 0° C | 63% | 1031.2 hPa | 0 mm | - | 0 W/m² | - |
| 1777512351 | 0° C | 62% | 1031.4 hPa | 0 mm | - | 0 W/m² | - |
| 1777511151 | -0.56° C | 63% | 1031.3 hPa | 0 mm | - | 0 W/m² | - |
| 1777509951 | -0.56° C | 63% | 1031.3 hPa | 0 mm | - | 0 W/m² | - |
| 1777508751 | 0° C | 61% | 1031.2 hPa | 0 mm | - | 0 W/m² | - |
| 1777507551 | 0.56° C | 60% | 1031.5 hPa | 0 mm | - | 0 W/m² | - |
| 1777506351 | 0.56° C | 59% | 1031.3 hPa | 0 mm | - | 0 W/m² | - |
| 1777505151 | 1.11° C | 58% | 1031.3 hPa | 0 mm | - | 0 W/m² | - |
| 1777503951 | 1.11° C | 56% | 1031.2 hPa | 0 mm | - | 0 W/m² | - |
| 1777502751 | 1.67° C | 55% | 1030.9 hPa | 0 mm | - | 0 W/m² | - |
| 1777501551 | 1.67° C | 55% | 1030.9 hPa | 0 mm | - | 0 W/m² | - |
| 1777500351 | 1.67° C | 54% | 1030.7 hPa | 0 mm | - | 0 W/m² | - |
| 1777499151 | 1.67° C | 53% | 1030.9 hPa | 0 mm | - | 0 W/m² | - |
| 1777497951 | 2.22° C | 52% | 1030.6 hPa | 0 mm | - | 0 W/m² | - |
* Rain latest hour (hover to see other rain measurements)
** Current wind speed in m/s (hover to see current wind gust speed)